Terminal Aerodrome Forecast
Issued by NWS

Home | Current Version | Previous Version | Text Only | Print | Product List | Glossary On
Versions: 1 2 3 4 5 6 7 8 9 10 11 12 13 14 15 16 17 18 19 20
000
FTUS43 KDLH 252300
TAFHIB
TAF
KHIB 252338Z 2600/2624 15005KT P6SM OVC050
      TEMPO 2600/2602 BKN025 BKN060
     FM260600 26004KT 2SM BR SCT007
     FM260900 28005KT 6SM BR FEW012
     FM261300 25008KT P6SM SKC
     FM262100 24014KT P6SM VCSH SCT100=

USA.gov is the U.S. government's official web portal to all federal, state and local government web resources and services.